sensor_id;sensor_type;location;lat;lon;timestamp;temperature;humidity
10911;DHT22;5508;49.150;11.030;2022-10-16T00:00:32;13.30;99.90
10911;DHT22;5508;49.150;11.030;2022-10-16T00:03:33;13.30;99.90
10911;DHT22;5508;49.150;11.030;2022-10-16T00:06:33;13.30;99.90
10911;DHT22;5508;49.150;11.030;2022-10-16T00:09:34;13.30;99.90
10911;DHT22;5508;49.150;11.030;2022-10-16T00:12:34;13.30;99.90
10911;DHT22;5508;49.150;11.030;2022-10-16T00:15:36;13.20;99.90
10911;DHT22;5508;49.150;11.030;2022-10-16T00:18:38;13.30;99.90
10911;DHT22;5508;49.150;11.030;2022-10-16T00:21:38;13.30;99.90
10911;DHT22;5508;49.150;11.030;2022-10-16T00:24:39;13.30;99.90
10911;DHT22;5508;49.150;11.030;2022-10-16T00:27:40;13.30;99.90
10911;DHT22;5508;49.150;11.030;2022-10-16T00:30:40;13.20;99.90
10911;DHT22;5508;49.150;11.030;2022-10-16T00:33:41;13.20;99.90
10911;DHT22;5508;49.150;11.030;2022-10-16T00:36:42;13.20;99.90
10911;DHT22;5508;49.150;11.030;2022-10-16T00:39:42;13.10;99.90
10911;DHT22;5508;49.150;11.030;2022-10-16T00:42:43;13.20;99.90
10911;DHT22;5508;49.150;11.030;2022-10-16T00:45:44;13.10;99.90
10911;DHT22;5508;49.150;11.030;2022-10-16T00:49:06;13.20;99.90
10911;DHT22;5508;49.150;11.030;2022-10-16T00:52:08;13.20;99.90
10911;DHT22;5508;49.150;11.030;2022-10-16T00:55:10;13.20;99.90
10911;DHT22;5508;49.150;11.030;2022-10-16T00:58:11;13.20;99.90
10911;DHT22;5508;49.150;11.030;2022-10-16T01:01:12;13.30;99.90
10911;DHT22;5508;49.150;11.030;2022-10-16T01:04:12;13.30;99.90
10911;DHT22;5508;49.150;11.030;2022-10-16T01:07:36;13.30;99.90
10911;DHT22;5508;49.150;11.030;2022-10-16T01:10:42;13.20;99.90
10911;DHT22;5508;49.150;11.030;2022-10-16T01:13:50;13.20;99.90
10911;DHT22;5508;49.150;11.030;2022-10-16T01:17:02;13.30;99.90
10911;DHT22;5508;49.150;11.030;2022-10-16T01:20:27;13.30;99.90
10911;DHT22;5508;49.150;11.030;2022-10-16T01:23:53;13.30;99.90
10911;DHT22;5508;49.150;11.030;2022-10-16T01:27:11;13.30;99.90
10911;DHT22;5508;49.150;11.030;2022-10-16T01:30:26;13.30;99.90
10911;DHT22;5508;49.150;11.030;2022-10-16T01:33:39;13.30;99.90
10911;DHT22;5508;49.150;11.030;2022-10-16T01:36:55;13.30;99.90
10911;DHT22;5508;49.150;11.030;2022-10-16T01:40:00;13.30;99.90
10911;DHT22;5508;49.150;11.030;2022-10-16T01:43:12;13.40;99.90
10911;DHT22;5508;49.150;11.030;2022-10-16T01:46:16;13.30;99.90
10911;DHT22;5508;49.150;11.030;2022-10-16T01:49:18;13.40;99.90
10911;DHT22;5508;49.150;11.030;2022-10-16T01:52:23;13.40;99.90
10911;DHT22;5508;49.150;11.030;2022-10-16T01:55:34;13.50;99.90
10911;DHT22;5508;49.150;11.030;2022-10-16T01:58:42;13.50;99.90
10911;DHT22;5508;49.150;11.030;2022-10-16T02:01:48;13.50;99.90
10911;DHT22;5508;49.150;11.030;2022-10-16T02:05:05;13.50;99.90
10911;DHT22;5508;49.150;11.030;2022-10-16T02:08:08;13.50;99.90
10911;DHT22;5508;49.150;11.030;2022-10-16T02:11:09;13.50;99.90
10911;DHT22;5508;49.150;11.030;2022-10-16T02:14:10;13.50;99.90
10911;DHT22;5508;49.150;11.030;2022-10-16T02:17:13;13.50;99.90
10911;DHT22;5508;49.150;11.030;2022-10-16T02:20:14;13.60;99.90
10911;DHT22;5508;49.150;11.030;2022-10-16T02:23:23;13.60;99.90
10911;DHT22;5508;49.150;11.030;2022-10-16T02:26:32;13.70;99.90
10911;DHT22;5508;49.150;11.030;2022-10-16T02:29:40;13.60;99.90
10911;DHT22;5508;49.150;11.030;2022-10-16T02:32:47;13.60;99.90
10911;DHT22;5508;49.150;11.030;2022-10-16T02:35:49;13.60;99.90
10911;DHT22;5508;49.150;11.030;2022-10-16T02:38:51;13.50;99.90
10911;DHT22;5508;49.150;11.030;2022-10-16T02:41:52;13.50;99.90
10911;DHT22;5508;49.150;11.030;2022-10-16T02:44:53;13.50;99.90
10911;DHT22;5508;49.150;11.030;2022-10-16T02:47:53;13.40;99.90
10911;DHT22;5508;49.150;11.030;2022-10-16T02:50:54;13.30;99.90
10911;DHT22;5508;49.150;11.030;2022-10-16T02:53:55;13.30;99.90
10911;DHT22;5508;49.150;11.030;2022-10-16T02:56:55;13.30;99.90
10911;DHT22;5508;49.150;11.030;2022-10-16T02:59:56;13.20;99.90
10911;DHT22;5508;49.150;11.030;2022-10-16T03:02:56;13.20;99.90
10911;DHT22;5508;49.150;11.030;2022-10-16T03:05:57;13.10;99.90
10911;DHT22;5508;49.150;11.030;2022-10-16T03:08:57;13.10;99.90
10911;DHT22;5508;49.150;11.030;2022-10-16T03:11:58;13.00;99.90
10911;DHT22;5508;49.150;11.030;2022-10-16T03:14:59;13.00;99.90
10911;DHT22;5508;49.150;11.030;2022-10-16T03:18:00;13.00;99.90
10911;DHT22;5508;49.150;11.030;2022-10-16T03:21:00;13.00;99.90
10911;DHT22;5508;49.150;11.030;2022-10-16T03:24:01;12.90;99.90
10911;DHT22;5508;49.150;11.030;2022-10-16T03:27:01;12.90;99.90
10911;DHT22;5508;49.150;11.030;2022-10-16T03:30:02;12.80;99.90
10911;DHT22;5508;49.150;11.030;2022-10-16T03:33:03;12.80;99.90
10911;DHT22;5508;49.150;11.030;2022-10-16T03:36:04;12.70;99.90
10911;DHT22;5508;49.150;11.030;2022-10-16T03:39:04;12.70;99.90
10911;DHT22;5508;49.150;11.030;2022-10-16T03:42:05;12.70;99.90
10911;DHT22;5508;49.150;11.030;2022-10-16T03:45:06;12.70;99.90
10911;DHT22;5508;49.150;11.030;2022-10-16T03:48:06;12.60;99.90
10911;DHT22;5508;49.150;11.030;2022-10-16T03:51:07;12.60;99.90
10911;DHT22;5508;49.150;11.030;2022-10-16T03:54:09;12.60;99.90
10911;DHT22;5508;49.150;11.030;2022-10-16T03:57:09;12.50;99.90
10911;DHT22;5508;49.150;11.030;2022-10-16T04:00:11;12.50;99.90
10911;DHT22;5508;49.150;11.030;2022-10-16T04:03:12;12.50;99.90
10911;DHT22;5508;49.150;11.030;2022-10-16T04:06:12;12.50;99.90
10911;DHT22;5508;49.150;11.030;2022-10-16T04:09:13;12.50;99.90
10911;DHT22;5508;49.150;11.030;2022-10-16T04:12:13;12.60;99.90
10911;DHT22;5508;49.150;11.030;2022-10-16T04:15:14;12.60;99.90
10911;DHT22;5508;49.150;11.030;2022-10-16T04:18:15;12.70;99.90
10911;DHT22;5508;49.150;11.030;2022-10-16T04:21:15;12.70;99.90
10911;DHT22;5508;49.150;11.030;2022-10-16T04:24:16;12.70;99.90
10911;DHT22;5508;49.150;11.030;2022-10-16T04:27:16;12.80;99.90
10911;DHT22;5508;49.150;11.030;2022-10-16T04:30:17;12.70;99.90
10911;DHT22;5508;49.150;11.030;2022-10-16T04:33:18;12.80;99.90
10911;DHT22;5508;49.150;11.030;2022-10-16T04:36:18;12.80;99.90
10911;DHT22;5508;49.150;11.030;2022-10-16T04:39:19;12.80;99.90
10911;DHT22;5508;49.150;11.030;2022-10-16T04:42:20;12.80;99.90
10911;DHT22;5508;49.150;11.030;2022-10-16T04:45:21;12.80;99.90
10911;DHT22;5508;49.150;11.030;2022-10-16T04:48:22;12.80;99.90
10911;DHT22;5508;49.150;11.030;2022-10-16T04:51:23;12.80;99.90
10911;DHT22;5508;49.150;11.030;2022-10-16T04:54:23;12.80;99.90
10911;DHT22;5508;49.150;11.030;2022-10-16T04:57:24;12.80;99.90
10911;DHT22;5508;49.150;11.030;2022-10-16T05:00:25;12.80;99.90
10911;DHT22;5508;49.150;11.030;2022-10-16T05:03:25;12.80;99.90
10911;DHT22;5508;49.150;11.030;2022-10-16T05:06:26;12.80;99.90
10911;DHT22;5508;49.150;11.030;2022-10-16T05:09:26;12.70;99.90
10911;DHT22;5508;49.150;11.030;2022-10-16T05:12:27;12.70;99.90
10911;DHT22;5508;49.150;11.030;2022-10-16T05:15:27;12.70;99.90
10911;DHT22;5508;49.150;11.030;2022-10-16T05:18:29;12.60;99.90
10911;DHT22;5508;49.150;11.030;2022-10-16T05:21:29;12.50;99.90
10911;DHT22;5508;49.150;11.030;2022-10-16T05:24:30;12.50;99.90
10911;DHT22;5508;49.150;11.030;2022-10-16T05:27:30;12.50;99.90
10911;DHT22;5508;49.150;11.030;2022-10-16T05:30:31;12.40;99.90
10911;DHT22;5508;49.150;11.030;2022-10-16T05:33:32;12.40;99.90
10911;DHT22;5508;49.150;11.030;2022-10-16T05:36:33;12.40;99.90
10911;DHT22;5508;49.150;11.030;2022-10-16T05:39:33;12.30;99.90
10911;DHT22;5508;49.150;11.030;2022-10-16T05:42:34;12.30;99.90
10911;DHT22;5508;49.150;11.030;2022-10-16T05:45:34;12.30;99.90
10911;DHT22;5508;49.150;11.030;2022-10-16T05:48:35;12.20;99.90
10911;DHT22;5508;49.150;11.030;2022-10-16T05:51:35;12.20;99.90
10911;DHT22;5508;49.150;11.030;2022-10-16T05:54:36;12.20;99.90
10911;DHT22;5508;49.150;11.030;2022-10-16T05:57:36;12.20;99.90
10911;DHT22;5508;49.150;11.030;2022-10-16T06:00:37;12.20;99.90
10911;DHT22;5508;49.150;11.030;2022-10-16T06:03:38;12.30;99.90
10911;DHT22;5508;49.150;11.030;2022-10-16T06:06:38;12.40;99.90
10911;DHT22;5508;49.150;11.030;2022-10-16T06:09:39;12.40;99.90
10911;DHT22;5508;49.150;11.030;2022-10-16T06:12:39;12.40;99.90
10911;DHT22;5508;49.150;11.030;2022-10-16T06:15:41;12.50;99.90
10911;DHT22;5508;49.150;11.030;2022-10-16T06:18:42;12.50;99.90
10911;DHT22;5508;49.150;11.030;2022-10-16T06:21:43;12.40;99.90
10911;DHT22;5508;49.150;11.030;2022-10-16T06:24:43;12.40;99.90
10911;DHT22;5508;49.150;11.030;2022-10-16T06:27:44;12.40;99.90
10911;DHT22;5508;49.150;11.030;2022-10-16T06:30:44;12.50;99.90
10911;DHT22;5508;49.150;11.030;2022-10-16T06:33:49;12.60;99.90
10911;DHT22;5508;49.150;11.030;2022-10-16T06:36:50;12.70;99.90
10911;DHT22;5508;49.150;11.030;2022-10-16T06:39:51;12.80;99.90
10911;DHT22;5508;49.150;11.030;2022-10-16T06:42:55;12.90;99.90
10911;DHT22;5508;49.150;11.030;2022-10-16T06:45:56;12.90;99.90
10911;DHT22;5508;49.150;11.030;2022-10-16T06:48:57;12.90;99.90
10911;DHT22;5508;49.150;11.030;2022-10-16T06:51:57;13.00;99.90
10911;DHT22;5508;49.150;11.030;2022-10-16T06:54:58;13.10;99.90
10911;DHT22;5508;49.150;11.030;2022-10-16T06:57:59;13.20;99.90
10911;DHT22;5508;49.150;11.030;2022-10-16T07:00:59;13.30;99.90
10911;DHT22;5508;49.150;11.030;2022-10-16T07:04:01;13.30;99.90
10911;DHT22;5508;49.150;11.030;2022-10-16T07:07:02;13.40;99.90
10911;DHT22;5508;49.150;11.030;2022-10-16T07:10:03;13.40;99.90
10911;DHT22;5508;49.150;11.030;2022-10-16T07:13:04;13.50;99.90
10911;DHT22;5508;49.150;11.030;2022-10-16T07:19:09;13.60;99.90
10911;DHT22;5508;49.150;11.030;2022-10-16T07:22:12;13.80;99.90
10911;DHT22;5508;49.150;11.030;2022-10-16T07:25:12;13.80;99.90
10911;DHT22;5508;49.150;11.030;2022-10-16T07:28:13;14.00;99.90
10911;DHT22;5508;49.150;11.030;2022-10-16T07:31:15;14.00;99.90
10911;DHT22;5508;49.150;11.030;2022-10-16T07:34:17;14.10;99.90
10911;DHT22;5508;49.150;11.030;2022-10-16T07:37:18;14.20;99.90
10911;DHT22;5508;49.150;11.030;2022-10-16T07:40:19;14.10;99.90
10911;DHT22;5508;49.150;11.030;2022-10-16T07:43:19;14.10;99.90
10911;DHT22;5508;49.150;11.030;2022-10-16T07:46:22;14.20;99.90
10911;DHT22;5508;49.150;11.030;2022-10-16T07:49:22;14.20;99.90
10911;DHT22;5508;49.150;11.030;2022-10-16T07:52:23;14.30;99.90
10911;DHT22;5508;49.150;11.030;2022-10-16T07:55:24;14.40;99.90
10911;DHT22;5508;49.150;11.030;2022-10-16T07:58:24;14.50;99.90
10911;DHT22;5508;49.150;11.030;2022-10-16T08:01:25;14.60;99.90
10911;DHT22;5508;49.150;11.030;2022-10-16T08:04:25;14.80;99.90
10911;DHT22;5508;49.150;11.030;2022-10-16T08:07:26;14.90;99.90
10911;DHT22;5508;49.150;11.030;2022-10-16T08:10:28;14.90;99.90
10911;DHT22;5508;49.150;11.030;2022-10-16T08:13:29;15.00;99.90
10911;DHT22;5508;49.150;11.030;2022-10-16T08:16:30;15.00;99.90
10911;DHT22;5508;49.150;11.030;2022-10-16T08:19:30;15.20;99.90
10911;DHT22;5508;49.150;11.030;2022-10-16T08:22:34;15.40;99.90
10911;DHT22;5508;49.150;11.030;2022-10-16T08:25:35;15.60;99.90
10911;DHT22;5508;49.150;11.030;2022-10-16T08:28:39;15.70;99.90
10911;DHT22;5508;49.150;11.030;2022-10-16T08:31:39;15.90;99.90
10911;DHT22;5508;49.150;11.030;2022-10-16T08:34:40;16.00;99.90
10911;DHT22;5508;49.150;11.030;2022-10-16T08:37:41;16.10;99.90
10911;DHT22;5508;49.150;11.030;2022-10-16T08:40:42;16.20;99.90
10911;DHT22;5508;49.150;11.030;2022-10-16T08:50:13;16.50;99.90
10911;DHT22;5508;49.150;11.030;2022-10-16T08:53:43;16.70;99.90
10911;DHT22;5508;49.150;11.030;2022-10-16T08:56:44;16.70;99.90
10911;DHT22;5508;49.150;11.030;2022-10-16T08:59:45;16.90;99.90
10911;DHT22;5508;49.150;11.030;2022-10-16T09:02:59;16.80;98.20
10911;DHT22;5508;49.150;11.030;2022-10-16T09:07:09;16.70;98.50
10911;DHT22;5508;49.150;11.030;2022-10-16T09:13:43;16.80;98.90
10911;DHT22;5508;49.150;11.030;2022-10-16T09:20:49;17.50;96.70
10911;DHT22;5508;49.150;11.030;2022-10-16T09:23:50;17.90;94.40
10911;DHT22;5508;49.150;11.030;2022-10-16T09:26:51;18.10;95.90
10911;DHT22;5508;49.150;11.030;2022-10-16T09:29:53;18.00;94.50
10911;DHT22;5508;49.150;11.030;2022-10-16T09:32:54;17.90;93.90
10911;DHT22;5508;49.150;11.030;2022-10-16T09:35:56;17.60;91.90
10911;DHT22;5508;49.150;11.030;2022-10-16T09:39:09;17.70;94.00
10911;DHT22;5508;49.150;11.030;2022-10-16T09:42:16;17.90;92.10
10911;DHT22;5508;49.150;11.030;2022-10-16T09:45:22;18.00;91.70
10911;DHT22;5508;49.150;11.030;2022-10-16T09:48:27;17.80;90.30
10911;DHT22;5508;49.150;11.030;2022-10-16T09:51:34;17.70;91.40
10911;DHT22;5508;49.150;11.030;2022-10-16T09:54:35;17.60;92.70
10911;DHT22;5508;49.150;11.030;2022-10-16T09:57:36;17.70;91.20
10911;DHT22;5508;49.150;11.030;2022-10-16T10:00:37;17.80;92.80
10911;DHT22;5508;49.150;11.030;2022-10-16T10:03:43;18.00;89.90
10911;DHT22;5508;49.150;11.030;2022-10-16T10:09:46;18.20;91.50
10911;DHT22;5508;49.150;11.030;2022-10-16T10:12:47;18.20;89.60
10911;DHT22;5508;49.150;11.030;2022-10-16T10:15:48;18.40;91.00
10911;DHT22;5508;49.150;11.030;2022-10-16T10:18:58;18.60;89.90
10911;DHT22;5508;49.150;11.030;2022-10-16T10:21:59;18.50;90.20
10911;DHT22;5508;49.150;11.030;2022-10-16T10:28:36;18.80;88.10
10911;DHT22;5508;49.150;11.030;2022-10-16T10:31:58;18.80;86.50
10911;DHT22;5508;49.150;11.030;2022-10-16T10:35:23;18.80;88.90
10911;DHT22;5508;49.150;11.030;2022-10-16T10:42:08;18.50;88.80
10911;DHT22;5508;49.150;11.030;2022-10-16T10:52:08;18.70;86.30
10911;DHT22;5508;49.150;11.030;2022-10-16T10:58:53;18.50;87.00
10911;DHT22;5508;49.150;11.030;2022-10-16T11:02:15;18.70;87.00
10911;DHT22;5508;49.150;11.030;2022-10-16T11:08:21;18.80;85.30
10911;DHT22;5508;49.150;11.030;2022-10-16T11:11:24;19.00;83.60
10911;DHT22;5508;49.150;11.030;2022-10-16T11:14:30;19.20;83.40
10911;DHT22;5508;49.150;11.030;2022-10-16T11:21:08;19.70;80.40
10911;DHT22;5508;49.150;11.030;2022-10-16T11:25:06;19.60;81.00
10911;DHT22;5508;49.150;11.030;2022-10-16T11:27:57;19.50;82.10
10911;DHT22;5508;49.150;11.030;2022-10-16T11:34:22;19.30;83.40
10911;DHT22;5508;49.150;11.030;2022-10-16T11:37:32;19.20;82.80
10911;DHT22;5508;49.150;11.030;2022-10-16T11:40:38;19.20;85.60
10911;DHT22;5508;49.150;11.030;2022-10-16T11:43:45;19.00;85.40
10911;DHT22;5508;49.150;11.030;2022-10-16T11:46:53;19.10;84.20
10911;DHT22;5508;49.150;11.030;2022-10-16T11:50:48;19.10;83.70
10911;DHT22;5508;49.150;11.030;2022-10-16T11:53:47;19.00;82.70
10911;DHT22;5508;49.150;11.030;2022-10-16T11:56:55;19.00;84.80
10911;DHT22;5508;49.150;11.030;2022-10-16T12:00:35;19.20;82.40
10911;DHT22;5508;49.150;11.030;2022-10-16T12:03:45;19.50;81.20
10911;DHT22;5508;49.150;11.030;2022-10-16T12:06:53;19.70;80.20
10911;DHT22;5508;49.150;11.030;2022-10-16T12:09:55;19.80;81.40
10911;DHT22;5508;49.150;11.030;2022-10-16T12:13:00;20.00;77.60
10911;DHT22;5508;49.150;11.030;2022-10-16T12:16:21;20.10;78.40
10911;DHT22;5508;49.150;11.030;2022-10-16T12:19:23;20.30;78.20
10911;DHT22;5508;49.150;11.030;2022-10-16T12:22:28;20.40;76.60
10911;DHT22;5508;49.150;11.030;2022-10-16T12:28:31;20.20;77.20
10911;DHT22;5508;49.150;11.030;2022-10-16T12:31:45;20.30;77.90
10911;DHT22;5508;49.150;11.030;2022-10-16T12:34:47;20.40;76.20
10911;DHT22;5508;49.150;11.030;2022-10-16T12:37:48;20.60;74.40
10911;DHT22;5508;49.150;11.030;2022-10-16T12:41:07;20.50;74.80
10911;DHT22;5508;49.150;11.030;2022-10-16T12:44:24;20.50;76.10
10911;DHT22;5508;49.150;11.030;2022-10-16T12:50:35;20.50;75.30
10911;DHT22;5508;49.150;11.030;2022-10-16T12:53:37;20.30;75.90
10911;DHT22;5508;49.150;11.030;2022-10-16T12:56:41;20.20;74.20
10911;DHT22;5508;49.150;11.030;2022-10-16T12:59:58;20.20;75.50
10911;DHT22;5508;49.150;11.030;2022-10-16T13:03:23;20.30;76.00
10911;DHT22;5508;49.150;11.030;2022-10-16T13:10:33;20.70;74.50
10911;DHT22;5508;49.150;11.030;2022-10-16T13:14:04;20.80;75.20
10911;DHT22;5508;49.150;11.030;2022-10-16T13:21:03;20.80;75.90
10911;DHT22;5508;49.150;11.030;2022-10-16T13:24:20;20.60;74.40
10911;DHT22;5508;49.150;11.030;2022-10-16T13:28:02;20.40;76.50
10911;DHT22;5508;49.150;11.030;2022-10-16T13:31:02;20.50;77.10
10911;DHT22;5508;49.150;11.030;2022-10-16T13:34:05;20.60;76.20
10911;DHT22;5508;49.150;11.030;2022-10-16T13:37:17;20.70;75.10
10911;DHT22;5508;49.150;11.030;2022-10-16T13:40:23;20.80;75.60
10911;DHT22;5508;49.150;11.030;2022-10-16T13:46:33;20.80;73.90
10911;DHT22;5508;49.150;11.030;2022-10-16T13:49:34;20.70;74.50
10911;DHT22;5508;49.150;11.030;2022-10-16T13:52:35;20.60;76.10
10911;DHT22;5508;49.150;11.030;2022-10-16T13:55:36;20.30;75.90
10911;DHT22;5508;49.150;11.030;2022-10-16T13:58:37;20.10;76.10
10911;DHT22;5508;49.150;11.030;2022-10-16T14:01:42;19.90;77.30
10911;DHT22;5508;49.150;11.030;2022-10-16T14:04:44;19.80;77.50
10911;DHT22;5508;49.150;11.030;2022-10-16T14:07:49;19.90;78.60
10911;DHT22;5508;49.150;11.030;2022-10-16T14:10:53;19.90;78.60
10911;DHT22;5508;49.150;11.030;2022-10-16T14:13:55;19.90;80.20
10911;DHT22;5508;49.150;11.030;2022-10-16T14:16:56;19.90;79.80
10911;DHT22;5508;49.150;11.030;2022-10-16T14:19:59;20.00;81.10
10911;DHT22;5508;49.150;11.030;2022-10-16T14:23:23;20.20;80.10
10911;DHT22;5508;49.150;11.030;2022-10-16T14:26:29;20.40;79.80
10911;DHT22;5508;49.150;11.030;2022-10-16T14:29:30;20.40;79.20
10911;DHT22;5508;49.150;11.030;2022-10-16T14:32:35;20.40;80.30
10911;DHT22;5508;49.150;11.030;2022-10-16T14:35:38;20.40;79.80
10911;DHT22;5508;49.150;11.030;2022-10-16T14:38:42;20.30;78.80
10911;DHT22;5508;49.150;11.030;2022-10-16T14:41:48;20.10;80.10
10911;DHT22;5508;49.150;11.030;2022-10-16T14:44:50;19.80;82.60
10911;DHT22;5508;49.150;11.030;2022-10-16T14:47:58;19.70;84.20
10911;DHT22;5508;49.150;11.030;2022-10-16T14:50:59;19.40;84.90
10911;DHT22;5508;49.150;11.030;2022-10-16T14:54:00;19.30;86.00
10911;DHT22;5508;49.150;11.030;2022-10-16T14:57:02;19.20;87.50
10911;DHT22;5508;49.150;11.030;2022-10-16T15:00:06;19.20;88.30
10911;DHT22;5508;49.150;11.030;2022-10-16T15:03:08;19.20;90.60
10911;DHT22;5508;49.150;11.030;2022-10-16T15:06:14;19.20;93.80
10911;DHT22;5508;49.150;11.030;2022-10-16T15:09:15;19.20;95.30
10911;DHT22;5508;49.150;11.030;2022-10-16T15:12:16;19.10;95.50
10911;DHT22;5508;49.150;11.030;2022-10-16T15:18:23;18.90;96.70
10911;DHT22;5508;49.150;11.030;2022-10-16T15:21:26;18.90;97.90
10911;DHT22;5508;49.150;11.030;2022-10-16T15:24:27;18.80;98.20
10911;DHT22;5508;49.150;11.030;2022-10-16T15:27:28;18.60;97.60
10911;DHT22;5508;49.150;11.030;2022-10-16T15:30:28;18.60;96.70
10911;DHT22;5508;49.150;11.030;2022-10-16T15:33:29;18.50;96.90
10911;DHT22;5508;49.150;11.030;2022-10-16T15:36:35;18.40;98.10
10911;DHT22;5508;49.150;11.030;2022-10-16T15:39:37;18.30;99.90
10911;DHT22;5508;49.150;11.030;2022-10-16T15:42:37;18.10;99.90
10911;DHT22;5508;49.150;11.030;2022-10-16T15:45:38;18.00;99.90
10911;DHT22;5508;49.150;11.030;2022-10-16T15:48:39;18.00;99.90
10911;DHT22;5508;49.150;11.030;2022-10-16T15:51:41;17.90;99.90
10911;DHT22;5508;49.150;11.030;2022-10-16T15:54:41;17.90;99.90
10911;DHT22;5508;49.150;11.030;2022-10-16T15:57:42;17.80;99.90
10911;DHT22;5508;49.150;11.030;2022-10-16T16:00:43;17.60;99.90
10911;DHT22;5508;49.150;11.030;2022-10-16T16:03:44;17.60;99.90
10911;DHT22;5508;49.150;11.030;2022-10-16T16:06:44;17.60;99.90
10911;DHT22;5508;49.150;11.030;2022-10-16T16:09:46;17.50;99.90
10911;DHT22;5508;49.150;11.030;2022-10-16T16:12:47;17.40;99.90
10911;DHT22;5508;49.150;11.030;2022-10-16T16:15:52;17.40;99.90
10911;DHT22;5508;49.150;11.030;2022-10-16T16:18:53;17.30;99.90
10911;DHT22;5508;49.150;11.030;2022-10-16T16:21:53;17.20;99.90
10911;DHT22;5508;49.150;11.030;2022-10-16T16:24:54;17.10;99.90
10911;DHT22;5508;49.150;11.030;2022-10-16T16:27:55;17.00;99.90
10911;DHT22;5508;49.150;11.030;2022-10-16T16:30:55;16.90;99.90
10911;DHT22;5508;49.150;11.030;2022-10-16T16:33:56;16.80;99.90
10911;DHT22;5508;49.150;11.030;2022-10-16T16:36:57;16.70;99.90
10911;DHT22;5508;49.150;11.030;2022-10-16T16:39:58;16.60;99.90
10911;DHT22;5508;49.150;11.030;2022-10-16T16:42:58;16.50;99.90
10911;DHT22;5508;49.150;11.030;2022-10-16T16:46:01;16.50;99.90
10911;DHT22;5508;49.150;11.030;2022-10-16T16:49:03;16.50;99.90
10911;DHT22;5508;49.150;11.030;2022-10-16T16:52:03;16.40;99.90
10911;DHT22;5508;49.150;11.030;2022-10-16T16:55:04;16.30;99.90
10911;DHT22;5508;49.150;11.030;2022-10-16T16:58:05;16.20;99.90
10911;DHT22;5508;49.150;11.030;2022-10-16T17:01:09;16.20;99.90
10911;DHT22;5508;49.150;11.030;2022-10-16T17:04:10;16.20;99.90
10911;DHT22;5508;49.150;11.030;2022-10-16T17:07:11;16.10;99.90
10911;DHT22;5508;49.150;11.030;2022-10-16T17:10:12;16.10;99.90
10911;DHT22;5508;49.150;11.030;2022-10-16T17:13:13;16.10;99.90
10911;DHT22;5508;49.150;11.030;2022-10-16T17:16:13;16.00;99.90
10911;DHT22;5508;49.150;11.030;2022-10-16T17:19:17;16.00;99.90
10911;DHT22;5508;49.150;11.030;2022-10-16T17:22:19;15.90;99.90
10911;DHT22;5508;49.150;11.030;2022-10-16T17:25:19;15.90;99.90
10911;DHT22;5508;49.150;11.030;2022-10-16T17:28:20;15.90;99.90
10911;DHT22;5508;49.150;11.030;2022-10-16T17:31:26;15.90;99.90
10911;DHT22;5508;49.150;11.030;2022-10-16T17:34:27;15.80;99.90
10911;DHT22;5508;49.150;11.030;2022-10-16T17:37:28;15.80;99.90
10911;DHT22;5508;49.150;11.030;2022-10-16T17:40:28;15.70;99.90
10911;DHT22;5508;49.150;11.030;2022-10-16T17:43:29;15.70;99.90
10911;DHT22;5508;49.150;11.030;2022-10-16T17:46:29;15.70;99.90
10911;DHT22;5508;49.150;11.030;2022-10-16T17:49:30;15.70;99.90
10911;DHT22;5508;49.150;11.030;2022-10-16T17:52:31;15.60;99.90
10911;DHT22;5508;49.150;11.030;2022-10-16T17:55:39;15.50;99.90
10911;DHT22;5508;49.150;11.030;2022-10-16T17:58:40;15.50;99.90
10911;DHT22;5508;49.150;11.030;2022-10-16T18:01:41;15.40;99.90
10911;DHT22;5508;49.150;11.030;2022-10-16T18:04:45;15.40;99.90
10911;DHT22;5508;49.150;11.030;2022-10-16T18:07:45;15.30;99.90
10911;DHT22;5508;49.150;11.030;2022-10-16T18:10:47;15.30;99.90
10911;DHT22;5508;49.150;11.030;2022-10-16T18:13:54;15.20;99.90
10911;DHT22;5508;49.150;11.030;2022-10-16T18:16:55;15.20;99.90
10911;DHT22;5508;49.150;11.030;2022-10-16T18:19:56;15.20;99.90
10911;DHT22;5508;49.150;11.030;2022-10-16T18:22:57;15.10;99.90
10911;DHT22;5508;49.150;11.030;2022-10-16T18:25:57;15.10;99.90
10911;DHT22;5508;49.150;11.030;2022-10-16T18:28:58;15.00;99.90
10911;DHT22;5508;49.150;11.030;2022-10-16T18:31:59;15.00;99.90
10911;DHT22;5508;49.150;11.030;2022-10-16T18:35:00;15.00;99.90
10911;DHT22;5508;49.150;11.030;2022-10-16T18:38:01;15.00;99.90
10911;DHT22;5508;49.150;11.030;2022-10-16T18:41:02;14.90;99.90
10911;DHT22;5508;49.150;11.030;2022-10-16T18:44:06;14.90;99.90
10911;DHT22;5508;49.150;11.030;2022-10-16T18:47:07;14.90;99.90
10911;DHT22;5508;49.150;11.030;2022-10-16T18:50:08;14.90;99.90
10911;DHT22;5508;49.150;11.030;2022-10-16T18:53:08;15.00;99.90
10911;DHT22;5508;49.150;11.030;2022-10-16T18:56:10;14.90;99.90
10911;DHT22;5508;49.150;11.030;2022-10-16T18:59:11;14.90;99.90
10911;DHT22;5508;49.150;11.030;2022-10-16T19:02:11;14.80;99.90
10911;DHT22;5508;49.150;11.030;2022-10-16T19:05:12;14.70;99.90
10911;DHT22;5508;49.150;11.030;2022-10-16T19:08:13;14.60;99.90
10911;DHT22;5508;49.150;11.030;2022-10-16T19:11:16;14.60;99.90
10911;DHT22;5508;49.150;11.030;2022-10-16T19:14:17;14.50;99.90
10911;DHT22;5508;49.150;11.030;2022-10-16T19:17:19;14.40;99.90
10911;DHT22;5508;49.150;11.030;2022-10-16T19:20:20;14.30;99.90
10911;DHT22;5508;49.150;11.030;2022-10-16T19:23:21;14.20;99.90
10911;DHT22;5508;49.150;11.030;2022-10-16T19:26:22;14.10;99.90
10911;DHT22;5508;49.150;11.030;2022-10-16T19:29:23;14.00;99.90
10911;DHT22;5508;49.150;11.030;2022-10-16T19:32:23;13.90;99.90
10911;DHT22;5508;49.150;11.030;2022-10-16T19:35:24;13.80;99.90
10911;DHT22;5508;49.150;11.030;2022-10-16T19:38:25;13.80;99.90
10911;DHT22;5508;49.150;11.030;2022-10-16T19:41:27;13.70;99.90
10911;DHT22;5508;49.150;11.030;2022-10-16T19:44:28;13.60;99.90
10911;DHT22;5508;49.150;11.030;2022-10-16T19:47:30;13.50;99.90
10911;DHT22;5508;49.150;11.030;2022-10-16T19:50:30;13.50;99.90
10911;DHT22;5508;49.150;11.030;2022-10-16T19:53:31;13.40;99.90
10911;DHT22;5508;49.150;11.030;2022-10-16T19:56:34;13.40;99.90
10911;DHT22;5508;49.150;11.030;2022-10-16T19:59:34;13.30;99.90
10911;DHT22;5508;49.150;11.030;2022-10-16T20:02:35;13.30;99.90
10911;DHT22;5508;49.150;11.030;2022-10-16T20:05:36;13.20;99.90
10911;DHT22;5508;49.150;11.030;2022-10-16T20:08:38;13.20;99.90
10911;DHT22;5508;49.150;11.030;2022-10-16T20:11:39;13.20;99.90
10911;DHT22;5508;49.150;11.030;2022-10-16T20:14:39;13.20;99.90
10911;DHT22;5508;49.150;11.030;2022-10-16T20:17:40;13.10;99.90
10911;DHT22;5508;49.150;11.030;2022-10-16T20:20:42;13.00;99.90
10911;DHT22;5508;49.150;11.030;2022-10-16T20:23:44;12.90;99.90
10911;DHT22;5508;49.150;11.030;2022-10-16T20:26:47;12.90;99.90